createdAt,value
2019-01-25T00:05:01.323Z,8.50
2019-01-25T00:07:30.580Z,8.50
2019-01-25T00:10:17.680Z,8.50
2019-01-25T00:12:47.075Z,8.50
2019-01-25T00:15:58.836Z,8.50
2019-01-25T00:18:42.582Z,8.50
2019-01-25T00:21:24.668Z,8.50
2019-01-25T00:27:34.725Z,8.50
2019-01-25T00:30:04.070Z,8.50
2019-01-25T00:32:33.330Z,8.50
2019-01-25T00:35:29.785Z,8.50
2019-01-25T00:44:56.655Z,8.40
2019-01-25T00:48:05.006Z,8.40
2019-01-25T00:50:34.383Z,8.40
2019-01-25T00:56:32.248Z,8.40
2019-01-25T00:59:01.545Z,8.40
2019-01-25T01:05:11.443Z,8.40
2019-01-25T01:08:11.804Z,8.40
2019-01-25T01:14:21.893Z,8.30
2019-01-25T01:17:51.822Z,8.30
2019-01-25T01:23:50.370Z,8.30
2019-01-25T01:29:47.891Z,8.30
2019-01-25T01:32:17.281Z,8.30
2019-01-25T01:34:48.622Z,8.30
2019-01-25T01:38:15.945Z,8.30
2019-01-25T01:44:14.322Z,8.30
2019-01-25T01:50:24.596Z,8.30
2019-01-25T01:56:34.942Z,8.30
2019-01-25T01:59:57.802Z,8.20
2019-01-25T02:06:08.208Z,8.20
2019-01-25T02:08:37.539Z,8.20
2019-01-25T02:11:06.904Z,8.20
2019-01-25T02:13:36.149Z,8.20
2019-01-25T02:20:27.792Z,8.20
2019-01-25T02:22:57.066Z,8.20
2019-01-25T02:25:26.327Z,8.20
2019-01-25T02:30:59.907Z,8.20
2019-01-25T02:37:10.037Z,8.20
2019-01-25T02:39:39.782Z,8.20
2019-01-25T02:42:09.067Z,8.20
2019-01-25T02:44:38.418Z,8.20
2019-01-25T02:47:07.661Z,8.20
2019-01-25T02:49:37.030Z,8.20
2019-01-25T02:53:04.026Z,8.20
2019-01-25T02:55:29.885Z,8.10
2019-01-25T02:57:59.146Z,8.10
2019-01-25T03:00:28.477Z,8.10
2019-01-25T03:02:57.822Z,8.10
2019-01-25T03:05:53.902Z,8.10
2019-01-25T03:08:23.150Z,8.10
2019-01-25T03:11:40.959Z,8.10
2019-01-25T03:14:10.367Z,8.10
2019-01-25T03:16:42.726Z,8.10
2019-01-25T03:22:40.967Z,8.10
2019-01-25T03:31:54.719Z,8.10
2019-01-25T03:41:20.971Z,8.10
2019-01-25T03:47:19.054Z,8.10
2019-01-25T03:50:41.062Z,8.00
2019-01-25T03:53:10.413Z,8.00
2019-01-25T03:55:48.683Z,8.00
2019-01-25T03:58:18.039Z,8.00
2019-01-25T04:01:57.880Z,8.00
2019-01-25T04:04:30.879Z,8.10
2019-01-25T04:10:41.146Z,8.50
2019-01-25T04:16:39.994Z,8.90
2019-01-25T04:23:17.110Z,9.40
2019-01-25T04:25:46.479Z,9.50
2019-01-25T04:28:28.905Z,9.70
2019-01-25T04:31:25.162Z,9.80
2019-01-25T04:33:54.417Z,10.00
2019-01-25T04:39:52.757Z,10.20
2019-01-25T04:42:24.908Z,10.30
2019-01-25T04:44:54.217Z,10.40
2019-01-25T04:47:28.128Z,10.50
2019-01-25T04:49:57.439Z,10.60
2019-01-25T04:52:26.653Z,10.60
2019-01-25T04:55:40.986Z,10.70
2019-01-25T04:58:47.033Z,10.80
2019-01-25T05:01:16.411Z,10.80
2019-01-25T05:03:49.143Z,10.90
2019-01-25T05:09:46.595Z,10.90
2019-01-25T05:15:48.782Z,10.60
2019-01-25T05:18:18.263Z,10.50
2019-01-25T05:20:47.495Z,10.40
2019-01-25T05:24:06.249Z,10.30
2019-01-25T05:26:57.800Z,10.20
2019-01-25T05:33:08.078Z,9.90
2019-01-25T05:39:08.459Z,9.70
2019-01-25T05:42:23.277Z,9.70
2019-01-25T05:48:33.542Z,9.50
2019-01-25T05:54:31.690Z,9.40
2019-01-25T05:57:07.283Z,9.30
2019-01-25T06:00:40.017Z,9.30
2019-01-25T06:03:36.070Z,9.20
2019-01-25T06:06:42.077Z,9.20
2019-01-25T06:13:41.086Z,9.10
2019-01-25T06:19:40.102Z,9.00
2019-01-25T06:23:06.653Z,9.00
2019-01-25T06:29:16.969Z,8.90
2019-01-25T06:32:18.912Z,8.90
2019-01-25T06:34:48.186Z,8.90
2019-01-25T06:37:17.443Z,8.80
2019-01-25T06:39:46.801Z,8.80
2019-01-25T06:42:16.041Z,8.80
2019-01-25T06:48:14.106Z,8.80
2019-01-25T06:54:24.132Z,8.80
2019-01-25T06:56:53.369Z,8.70
2019-01-25T06:59:36.134Z,8.70
2019-01-25T07:02:11.722Z,8.70
2019-01-25T07:08:10.653Z,8.70
2019-01-25T07:11:41.873Z,8.70
2019-01-25T07:14:06.458Z,8.70
2019-01-25T07:16:35.711Z,8.60
2019-01-25T07:19:58.087Z,8.60
2019-01-25T07:22:43.089Z,8.60
2019-01-25T07:25:12.478Z,8.60
2019-01-25T07:30:58.820Z,8.60
2019-01-25T07:33:28.020Z,8.60
2019-01-25T07:35:57.286Z,8.60
2019-01-25T07:42:07.546Z,8.60
2019-01-25T07:44:36.981Z,8.60
2019-01-25T07:47:06.257Z,8.60
2019-01-25T07:49:35.585Z,8.50
2019-01-25T07:55:42.927Z,8.50
2019-01-25T07:58:30.078Z,8.50
2019-01-25T08:04:27.660Z,8.50
2019-01-25T08:11:05.376Z,8.50
2019-01-25T08:13:34.658Z,8.50
2019-01-25T08:16:58.039Z,8.50
2019-01-25T08:19:28.172Z,8.50
2019-01-25T08:21:57.909Z,8.50
2019-01-25T08:24:27.169Z,8.50
2019-01-25T08:27:11.139Z,8.40
2019-01-25T08:29:49.850Z,8.50
2019-01-25T08:33:14.061Z,8.50
2019-01-25T08:35:43.282Z,8.40
2019-01-25T08:42:07.112Z,8.40
2019-01-25T08:44:36.936Z,8.40
2019-01-25T08:47:06.227Z,8.40
2019-01-25T08:49:35.613Z,8.40
2019-01-25T08:55:32.848Z,8.40
2019-01-25T08:58:41.322Z,8.40
2019-01-25T09:01:10.633Z,8.40
2019-01-25T09:07:13.009Z,8.40
2019-01-25T09:14:10.265Z,8.40
2019-01-25T09:16:39.658Z,8.40
2019-01-25T09:19:36.029Z,8.40
2019-01-25T09:22:13.128Z,8.40
2019-01-25T09:25:52.232Z,8.40
2019-01-25T09:28:21.740Z,8.40
2019-01-25T09:30:51.173Z,8.30
2019-01-25T09:33:43.211Z,8.40
2019-01-25T09:36:12.464Z,8.30
2019-01-25T09:42:30.990Z,8.30
2019-01-25T09:48:36.718Z,8.30
2019-01-25T09:58:17.258Z,8.30
2019-01-25T10:05:00.092Z,8.30
2019-01-25T10:11:52.156Z,8.30
2019-01-25T10:17:50.094Z,8.30
2019-01-25T10:27:16.893Z,8.30
2019-01-25T10:30:29.433Z,8.30
2019-01-25T10:33:00.420Z,8.30
2019-01-25T10:49:24.102Z,8.20
2019-01-25T10:55:34.249Z,8.20
2019-01-25T10:58:58.167Z,8.20
2019-01-25T11:05:08.385Z,8.20
2019-01-25T11:07:37.655Z,8.20
2019-01-25T11:10:07.080Z,8.20
2019-01-25T11:16:17.230Z,8.20
2019-01-25T11:25:43.754Z,8.10
2019-01-25T11:28:13.022Z,8.10
2019-01-25T11:30:42.411Z,8.10
2019-01-25T11:33:42.195Z,8.10
2019-01-25T11:36:11.450Z,8.10
2019-01-25T11:38:40.788Z,8.10
2019-01-25T11:41:14.066Z,8.10
2019-01-25T11:47:24.213Z,8.10
2019-01-25T11:49:53.791Z,8.10
2019-01-25T11:56:46.296Z,8.10
2019-01-25T12:02:56.323Z,8.10
2019-01-25T12:05:25.645Z,8.10
2019-01-25T12:07:54.985Z,8.10
2019-01-25T12:17:20.828Z,8.10
2019-01-25T12:23:42.349Z,8.10
2019-01-25T12:29:40.119Z,8.00
2019-01-25T12:32:30.150Z,8.00
2019-01-25T12:35:01.774Z,8.00
2019-01-25T12:41:00.337Z,8.00
2019-01-25T12:43:54.309Z,8.10
2019-01-25T12:49:55.225Z,8.50
2019-01-25T12:56:24.182Z,8.90
2019-01-25T13:05:50.880Z,9.50
2019-01-25T13:11:48.853Z,9.70
2019-01-25T13:14:36.303Z,9.90
2019-01-25T13:24:15.100Z,10.20
2019-01-25T13:30:01.431Z,10.30
2019-01-25T13:36:12.014Z,10.50
2019-01-25T13:38:41.376Z,10.60
2019-01-25T13:41:59.378Z,10.70
2019-01-25T13:44:30.365Z,10.70
2019-01-25T13:54:09.481Z,10.90
2019-01-25T13:56:38.846Z,10.90
2019-01-25T13:59:08.129Z,11.00
2019-01-25T14:01:37.362Z,10.90
2019-01-25T14:07:35.090Z,10.60
2019-01-25T14:10:58.460Z,10.50
2019-01-25T14:17:08.718Z,10.30
2019-01-25T14:23:06.725Z,10.00
2019-01-25T14:29:34.285Z,9.90
2019-01-25T14:32:03.681Z,9.80
2019-01-25T14:34:32.905Z,9.70
2019-01-25T14:37:02.042Z,9.60
2019-01-25T14:44:05.430Z,9.50
2019-01-25T14:47:17.427Z,9.50
2019-01-25T14:49:46.766Z,9.40
2019-01-25T14:52:19.164Z,9.40
2019-01-25T14:58:31.058Z,9.30
2019-01-25T15:04:28.859Z,9.20
2019-01-25T15:17:23.664Z,9.10
2019-01-25T15:20:09.159Z,9.00
2019-01-25T15:26:08.037Z,9.00
2019-01-25T15:28:37.334Z,8.90
2019-01-25T15:32:04.340Z,8.90
2019-01-25T15:34:37.287Z,8.90
2019-01-25T15:37:06.542Z,8.90
2019-01-25T15:40:47.942Z,8.80
2019-01-25T15:46:45.305Z,8.80
2019-01-25T15:49:59.636Z,8.80
2019-01-25T15:52:28.881Z,8.70
2019-01-25T15:55:18.489Z,8.70
2019-01-25T15:57:47.883Z,8.70
2019-01-25T16:00:20.913Z,8.70
2019-01-25T16:03:01.565Z,8.70
2019-01-25T16:05:30.922Z,8.70
2019-01-25T16:11:28.790Z,8.70
2019-01-25T16:14:07.178Z,8.60
2019-01-25T16:20:17.967Z,8.60
2019-01-25T16:22:55.215Z,8.60
2019-01-25T16:25:42.290Z,8.60
2019-01-25T16:28:11.603Z,8.60
2019-01-25T16:31:06.822Z,8.60
2019-01-25T16:33:36.389Z,8.60
2019-01-25T16:36:05.790Z,8.60
2019-01-25T16:42:04.053Z,8.60
2019-01-25T16:44:33.588Z,8.60
2019-01-25T16:47:02.891Z,8.60
2019-01-25T16:49:32.261Z,8.60
2019-01-25T16:52:01.557Z,8.60
2019-01-25T16:54:31.238Z,8.60
2019-01-25T16:57:41.490Z,8.60
2019-01-25T17:00:18.075Z,8.60
2019-01-25T17:06:28.142Z,8.60
2019-01-25T17:09:18.309Z,8.60
2019-01-25T17:15:28.777Z,8.60
2019-01-25T17:17:57.992Z,8.60
2019-01-25T17:21:11.485Z,8.60
2019-01-25T17:24:17.453Z,8.50
2019-01-25T17:26:47.315Z,8.50
2019-01-25T17:29:35.510Z,8.50
2019-01-25T17:32:04.924Z,8.50
2019-01-25T17:34:37.234Z,8.50
2019-01-25T17:37:06.578Z,8.50
2019-01-25T17:39:43.230Z,8.50
2019-01-25T17:42:12.554Z,8.40
2019-01-25T17:45:07.729Z,8.40
2019-01-25T17:47:37.458Z,8.40
2019-01-25T17:50:08.093Z,8.40
2019-01-25T17:56:06.207Z,8.40
2019-01-25T17:58:35.542Z,8.40
2019-01-25T18:04:34.029Z,8.40
2019-01-25T18:07:07.282Z,8.30
2019-01-25T18:09:36.654Z,8.30
2019-01-25T18:15:50.063Z,8.30
2019-01-25T18:21:49.277Z,8.30
2019-01-25T18:24:19.344Z,8.30
2019-01-25T18:30:47.592Z,8.30
2019-01-25T18:33:16.985Z,8.30
2019-01-25T18:35:46.725Z,8.30
2019-01-25T18:38:15.972Z,8.30
2019-01-25T18:40:45.237Z,8.30
2019-01-25T18:43:14.893Z,8.20
2019-01-25T18:45:44.278Z,8.20
2019-01-25T18:48:13.528Z,8.20
2019-01-25T18:50:42.850Z,8.20
2019-01-25T18:53:12.300Z,8.30
2019-01-25T18:55:43.281Z,8.20
2019-01-25T18:58:12.637Z,8.20
2019-01-25T19:01:12.391Z,8.20
2019-01-25T19:07:10.323Z,8.20
2019-01-25T19:13:25.365Z,8.20
2019-01-25T19:16:41.646Z,8.20
2019-01-25T19:19:11.039Z,8.20
2019-01-25T19:26:04.447Z,8.20
2019-01-25T19:28:33.806Z,8.20
2019-01-25T19:31:41.776Z,8.20
2019-01-25T19:34:11.119Z,8.20
2019-01-25T19:36:40.378Z,8.20
2019-01-25T19:39:12.698Z,8.20
2019-01-25T19:42:45.286Z,8.20
2019-01-25T19:45:59.600Z,8.20
2019-01-25T19:49:22.566Z,8.20
2019-01-25T19:51:55.480Z,8.20
2019-01-25T19:55:17.782Z,8.10
2019-01-25T19:57:47.137Z,8.10
2019-01-25T20:00:42.478Z,8.10
2019-01-25T20:11:05.577Z,8.10
2019-01-25T20:13:34.993Z,8.10
2019-01-25T20:16:13.474Z,8.10
2019-01-25T20:19:52.639Z,8.10
2019-01-25T20:22:25.410Z,8.10
2019-01-25T20:24:55.298Z,8.10
2019-01-25T20:27:24.630Z,8.10
2019-01-25T20:29:55.342Z,8.10
2019-01-25T20:32:24.634Z,8.10
2019-01-25T20:38:44.083Z,8.10
2019-01-25T20:41:13.355Z,8.10
2019-01-25T20:43:42.690Z,8.10
2019-01-25T20:46:19.426Z,8.10
2019-01-25T20:48:48.653Z,8.10
2019-01-25T20:51:17.940Z,8.10
2019-01-25T20:53:47.229Z,8.10
2019-01-25T20:56:16.601Z,8.10
2019-01-25T20:58:45.824Z,8.10
2019-01-25T21:01:15.101Z,8.10
2019-01-25T21:03:44.508Z,8.10
2019-01-25T21:09:42.463Z,8.10
2019-01-25T21:12:11.817Z,8.10
2019-01-25T21:19:16.618Z,8.00
2019-01-25T21:25:14.910Z,8.10
2019-01-25T21:27:44.262Z,8.00
2019-01-25T21:30:46.558Z,8.00
2019-01-25T21:39:25.537Z,8.40
2019-01-25T21:42:52.553Z,8.60
2019-01-25T21:49:02.536Z,9.00
2019-01-25T21:51:31.878Z,9.20
2019-01-25T21:54:01.180Z,9.30
2019-01-25T21:56:31.452Z,9.40
2019-01-25T21:59:00.846Z,9.50
2019-01-25T22:02:11.669Z,9.60
2019-01-25T22:04:41.013Z,9.70
2019-01-25T22:07:10.308Z,9.80
2019-01-25T22:13:08.115Z,10.00
2019-01-25T22:15:37.400Z,10.10
2019-01-25T22:18:07.457Z,10.10
2019-01-25T22:20:36.835Z,10.20
2019-01-25T22:23:06.098Z,10.30
2019-01-25T22:26:23.897Z,10.30
2019-01-25T22:31:57.492Z,10.50
2019-01-25T22:34:26.848Z,10.50
2019-01-25T22:37:24.658Z,10.50
2019-01-25T22:39:53.926Z,10.60
2019-01-25T22:46:03.825Z,10.80
2019-01-25T22:48:33.539Z,10.80
2019-01-25T22:54:32.133Z,10.90
2019-01-25T23:00:52.066Z,11.00
2019-01-25T23:03:57.715Z,10.80
2019-01-25T23:09:58.065Z,10.60
2019-01-25T23:13:22.738Z,10.40
2019-01-25T23:15:52.177Z,10.40
2019-01-25T23:22:53.705Z,10.20
2019-01-25T23:28:50.875Z,10.00
2019-01-25T23:35:12.742Z,9.80
2019-01-25T23:38:17.708Z,9.70
2019-01-25T23:40:46.957Z,9.70
2019-01-25T23:46:45.029Z,9.50
2019-01-25T23:52:55.305Z,9.50
2019-01-25T23:55:42.729Z,9.40
2019-01-25T23:58:12.017Z,9.40
